Time;durP1;ratioP1;P1;durP2;ratioP2;P2;SDS_P1;SDS_P2;PMS_P1;PMS_P2;Temp;Humidity;BMP_temperature;BMP_pressure;BME280_temperature;BME280_humidity;BME280_pressure;Samples;Min_cycle;Max_cycle;Signal;HPM_P1;HPM_P2
2021/10/04 05:38:25;;;;;;;3.65;1.05;;;17.60;74.80;;;;;;5072925;24;20099;-68
2021/10/04 05:40:57;;;;;;;5.28;1.00;;;17.70;74.70;;;;;;4790840;30;20375;-70
2021/10/04 05:43:23;;;;;;;5.65;0.95;;;17.80;74.70;;;;;;4777651;30;20059;-68
2021/10/04 05:45:49;;;;;;;3.45;0.70;;;17.90;74.90;;;;;;4777616;30;20047;-70
2021/10/04 05:48:15;;;;;;;4.00;1.00;;;17.90;74.60;;;;;;4793752;30;20054;-68
2021/10/04 05:50:40;;;;;;;3.80;0.77;;;18.00;74.60;;;;;;4792998;30;20134;-69
2021/10/04 05:53:06;;;;;;;9.30;1.00;;;18.00;74.60;;;;;;4793333;30;20116;-70
2021/10/04 05:55:32;;;;;;;5.97;0.70;;;18.00;74.60;;;;;;4792664;30;20085;-69
2021/10/04 05:57:58;;;;;;;4.68;0.80;;;18.00;74.70;;;;;;4792949;30;20127;-67
2021/10/04 06:00:23;;;;;;;5.00;0.82;;;18.00;74.80;;;;;;4773430;30;20055;-68
2021/10/04 06:02:50;;;;;;;2.85;1.00;;;18.00;74.70;;;;;;4790296;30;20047;-66
2021/10/04 06:05:16;;;;;;;8.60;1.42;;;18.00;74.10;;;;;;4793114;30;20051;-72
2021/10/04 06:07:42;;;;;;;8.20;1.02;;;18.00;74.80;;;;;;4792690;30;20047;-68
2021/10/04 06:10:10;;;;;;;10.85;1.10;;;18.00;74.70;;;;;;4792208;30;20058;-74
2021/10/04 06:12:38;;;;;;;11.35;1.23;;;18.00;74.70;;;;;;4807526;29;20134;-69
2021/10/04 06:15:04;;;;;;;5.15;1.52;;;18.00;74.40;;;;;;4793040;30;20055;-70
2021/10/04 06:17:30;;;;;;;10.05;1.70;;;17.90;72.30;;;;;;4791681;30;21739;-71
2021/10/04 06:19:55;;;;;;;5.65;0.90;;;17.50;71.60;;;;;;4801823;29;20058;-69
2021/10/04 06:22:22;;;;;;;7.43;1.02;;;17.10;71.70;;;;;;4811198;29;20058;-69
2021/10/04 06:24:48;;;;;;;3.72;0.75;;;16.80;72.50;;;;;;4794178;29;20086;-69
2021/10/04 06:27:15;;;;;;;2.53;0.93;;;16.60;73.20;;;;;;4792802;30;20067;-69
2021/10/04 06:29:42;;;;;;;4.55;1.20;;;16.40;73.90;;;;;;4786733;30;20483;-70
2021/10/04 06:32:08;;;;;;;5.43;1.30;;;16.30;74.50;;;;;;4781653;30;20131;-70
2021/10/04 06:34:34;;;;;;;5.28;1.08;;;16.20;75.00;;;;;;4792218;30;20383;-71
2021/10/04 06:37:00;;;;;;;3.88;0.90;;;16.30;75.30;;;;;;4792564;30;20055;-70
2021/10/04 06:39:26;;;;;;;7.32;0.90;;;16.20;75.50;;;;;;4792397;29;20062;-71
2021/10/04 06:41:52;;;;;;;4.60;1.33;;;16.50;77.70;;;;;;4790412;30;20048;-70
2021/10/04 06:44:17;;;;;;;5.05;0.82;;;17.00;77.90;;;;;;4792180;30;20051;-71
2021/10/04 06:46:43;;;;;;;8.45;1.42;;;17.50;77.10;;;;;;4792705;30;20055;-71
2021/10/04 06:49:09;;;;;;;5.28;1.00;;;17.90;75.80;;;;;;4791936;30;20087;-71
2021/10/04 06:51:34;;;;;;;6.63;0.80;;;18.20;75.10;;;;;;4791745;29;20081;-70
2021/10/04 06:54:00;;;;;;;5.07;0.80;;;18.40;74.40;;;;;;4791874;30;20086;-73
2021/10/04 06:56:26;;;;;;;3.83;1.55;;;18.20;73.30;;;;;;4776499;30;20062;-72
2021/10/04 06:58:52;;;;;;;4.93;1.05;;;18.40;74.20;;;;;;4776204;30;20410;-71
2021/10/04 07:01:18;;;;;;;3.95;0.98;;;18.50;74.00;;;;;;4792231;30;20594;-72
2021/10/04 07:03:44;;;;;;;4.50;0.90;;;18.60;73.70;;;;;;4789934;30;20101;-70
2021/10/04 07:06:10;;;;;;;5.65;1.30;;;18.50;69.70;;;;;;4782534;30;20047;-69
2021/10/04 07:08:36;;;;;;;11.32;1.05;;;17.70;69.50;;;;;;4776108;30;20059;-70
2021/10/04 07:11:02;;;;;;;7.72;0.95;;;17.50;70.70;;;;;;4789793;30;20054;-70
2021/10/04 07:13:28;;;;;;;4.43;0.80;;;17.50;74.50;;;;;;4761379;30;20101;-70
2021/10/04 07:15:54;;;;;;;3.70;1.00;;;17.80;75.30;;;;;;4791834;30;20105;-71
2021/10/04 07:18:20;;;;;;;7.38;1.17;;;18.00;75.30;;;;;;4791554;30;20070;-70
2021/10/04 07:20:46;;;;;;;4.07;0.77;;;18.10;75.10;;;;;;4776735;30;20055;-70
2021/10/04 07:23:12;;;;;;;5.43;1.27;;;18.10;74.80;;;;;;4791535;30;20047;-72
2021/10/04 07:25:38;;;;;;;4.15;1.10;;;18.20;74.60;;;;;;4792073;30;20127;-70
2021/10/04 07:28:04;;;;;;;5.60;0.75;;;18.20;74.50;;;;;;4791807;30;20051;-68
2021/10/04 07:30:31;;;;;;;2.67;0.70;;;18.30;74.50;;;;;;4775895;30;20047;-69
2021/10/04 07:32:57;;;;;;;7.30;1.35;;;18.30;74.40;;;;;;4790655;29;20059;-69
2021/10/04 07:35:24;;;;;;;8.02;1.30;;;18.10;73.20;;;;;;4791809;30;20055;-70
2021/10/04 07:37:50;;;;;;;4.18;1.38;;;18.00;72.50;;;;;;4791640;30;20055;-69
2021/10/04 07:40:16;;;;;;;7.22;1.38;;;17.70;72.70;;;;;;4791227;30;20381;-69
2021/10/04 07:42:43;;;;;;;4.53;1.00;;;17.30;72.90;;;;;;4791912;30;20053;-69
2021/10/04 07:45:11;;;;;;;5.80;1.20;;;17.20;73.90;;;;;;4791672;30;20453;-69
2021/10/04 07:47:37;;;;;;;8.20;1.38;;;17.10;74.20;;;;;;4790965;30;21525;-69
2021/10/04 07:50:05;;;;;;;3.55;1.00;;;16.90;74.40;;;;;;4791702;30;20055;-69
2021/10/04 07:52:30;;;;;;;4.70;1.42;;;16.90;74.60;;;;;;4791528;30;20051;-70
2021/10/04 07:54:58;;;;;;;4.22;1.10;;;16.80;74.80;;;;;;4791375;30;20534;-71
2021/10/04 07:57:24;;;;;;;5.72;1.17;;;16.90;75.90;;;;;;4771834;30;20415;-71
2021/10/04 07:59:50;;;;;;;3.05;1.35;;;17.20;75.20;;;;;;4774734;30;20116;-73
2021/10/04 08:02:15;;;;;;;5.43;1.60;;;17.30;74.50;;;;;;4790164;29;20059;-72
2021/10/04 08:04:43;;;;;;;5.35;1.58;;;17.40;74.10;;;;;;4791324;30;20097;-73
2021/10/04 08:07:08;;;;;;;5.45;1.33;;;17.50;73.50;;;;;;4791717;30;20063;-73
2021/10/04 08:09:34;;;;;;;5.30;1.20;;;17.50;72.90;;;;;;4791132;30;20135;-74
2021/10/04 08:12:01;;;;;;;4.32;1.40;;;17.60;72.30;;;;;;4790718;30;20127;-72
2021/10/04 08:14:27;;;;;;;4.07;1.25;;;17.70;71.20;;;;;;4791053;30;20066;-73
2021/10/04 08:16:53;;;;;;;4.28;1.10;;;17.70;70.30;;;;;;4790184;30;20052;-71
2021/10/04 08:19:18;;;;;;;5.25;1.35;;;17.70;70.30;;;;;;4790832;30;20059;-73
2021/10/04 08:21:44;;;;;;;2.38;1.10;;;17.70;70.10;;;;;;4775193;30;20424;-71
2021/10/04 08:24:10;;;;;;;5.82;1.58;;;17.70;70.10;;;;;;4786913;30;20055;-70
2021/10/04 08:26:36;;;;;;;7.65;1.45;;;17.80;70.30;;;;;;4783054;30;20051;-69
2021/10/04 08:29:02;;;;;;;7.63;1.60;;;17.70;71.50;;;;;;4790524;30;20069;-69
2021/10/04 08:31:32;;;;;;;7.47;1.17;;;17.70;72.60;;;;;;4790602;30;20100;-69
2021/10/04 08:34:00;;;;;;;6.93;1.45;;;17.70;73.10;;;;;;4790480;30;20055;-69
2021/10/04 08:36:26;;;;;;;4.40;0.95;;;17.60;73.40;;;;;;4790494;30;20474;-68
2021/10/04 08:38:51;;;;;;;6.15;1.30;;;17.70;73.90;;;;;;4790555;30;20150;-69
2021/10/04 08:41:19;;;;;;;8.75;1.25;;;17.70;74.10;;;;;;4790267;30;20047;-69
2021/10/04 08:43:48;;;;;;;8.38;1.08;;;17.70;74.30;;;;;;4790556;30;20088;-70
2021/10/04 08:46:14;;;;;;;4.53;1.42;;;17.80;72.20;;;;;;4790945;30;20111;-70
2021/10/04 08:48:40;;;;;;;8.07;1.63;;;17.80;71.10;;;;;;4790234;30;20089;-70
2021/10/04 08:51:10;;;;;;;12.48;1.48;;;17.80;71.50;;;;;;4790466;30;20059;-70
2021/10/04 08:53:39;;;;;;;12.80;2.83;;;17.70;72.50;;;;;;4786567;29;20051;-74
2021/10/04 08:56:06;;;;;;;6.60;1.40;;;17.80;72.30;;;;;;4790540;30;20121;-74
2021/10/04 08:58:32;;;;;;;6.20;1.38;;;17.80;71.10;;;;;;4789807;30;20471;-73
2021/10/04 09:00:59;;;;;;;7.50;1.88;;;17.90;70.40;;;;;;4790922;30;20094;-71
2021/10/04 09:03:25;;;;;;;5.90;1.17;;;17.90;69.50;;;;;;4789525;30;20457;-71
2021/10/04 09:05:57;;;;;;;4.95;1.48;;;17.90;69.20;;;;;;4790200;30;20051;-70
2021/10/04 09:08:23;;;;;;;4.53;1.42;;;17.90;68.70;;;;;;4790354;30;20051;-71
2021/10/04 09:10:55;;;;;;;3.53;1.17;;;17.80;68.60;;;;;;4790447;30;20459;-73
2021/10/04 09:13:21;;;;;;;7.60;1.98;;;17.80;68.60;;;;;;4789181;30;20051;-74
2021/10/04 09:15:49;;;;;;;6.68;1.38;;;17.90;68.20;;;;;;4790004;30;20395;-73
2021/10/04 09:18:15;;;;;;;7.20;1.60;;;17.80;68.30;;;;;;4789837;30;20055;-74
2021/10/04 09:21:15;;;;;;;5.03;1.42;;;17.80;68.30;;;;;;4790097;30;20454;-71
2021/10/04 09:23:56;;;;;;;4.63;1.17;;;17.70;69.00;;;;;;4760476;30;20063;-71
2021/10/04 09:26:24;;;;;;;4.47;1.67;;;17.70;69.50;;;;;;4789850;30;20101;-73
2021/10/04 09:28:58;;;;;;;4.00;1.52;;;17.70;69.20;;;;;;4789535;30;20146;-74
2021/10/04 09:31:28;;;;;;;9.35;1.45;;;17.70;69.30;;;;;;4790710;30;20393;-74
2021/10/04 09:33:59;;;;;;;4.97;1.33;;;17.70;69.80;;;;;;4789714;30;20070;-73
2021/10/04 09:36:25;;;;;;;10.45;1.55;;;17.60;70.20;;;;;;4784826;29;20059;-76
2021/10/04 09:39:09;;;;;;;11.43;1.52;;;17.60;70.70;;;;;;4788140;30;20108;-72
2021/10/04 09:41:35;;;;;;;8.90;1.40;;;17.60;70.70;;;;;;4784326;30;20059;-71
2021/10/04 09:44:03;;;;;;;6.50;1.80;;;17.70;70.00;;;;;;4772997;30;20364;-74
2021/10/04 09:46:29;;;;;;;6.60;1.20;;;17.70;69.90;;;;;;4785912;29;20056;-70
2021/10/04 09:49:02;;;;;;;4.88;1.30;;;17.80;70.00;;;;;;4788519;30;20136;-71
2021/10/04 09:51:28;;;;;;;8.82;1.67;;;17.90;69.70;;;;;;4769520;30;20059;-70
2021/10/04 09:54:10;;;;;;;5.07;1.10;;;18.00;68.60;;;;;;4785158;30;20051;-71
2021/10/04 09:56:36;;;;;;;9.15;1.45;;;17.90;68.50;;;;;;4788967;30;20051;-71
2021/10/04 09:59:02;;;;;;;8.32;1.85;;;17.90;69.40;;;;;;4789399;30;20122;-71
2021/10/04 10:01:28;;;;;;;8.85;1.50;;;18.00;69.40;;;;;;4787216;30;20054;-73
2021/10/04 10:03:55;;;;;;;6.18;1.23;;;18.00;68.30;;;;;;4771385;30;20368;-71
2021/10/04 10:06:21;;;;;;;7.78;1.38;;;18.00;67.60;;;;;;4771872;30;20492;-71
2021/10/04 10:08:48;;;;;;;5.57;1.08;;;17.90;68.80;;;;;;4771959;30;20084;-71
2021/10/04 10:11:17;;;;;;;4.03;1.25;;;17.80;69.50;;;;;;4774629;30;20108;-71
2021/10/04 10:13:44;;;;;;;5.10;1.30;;;17.80;69.70;;;;;;4779697;30;20471;-70
2021/10/04 10:16:09;;;;;;;5.22;1.20;;;17.70;70.10;;;;;;4788476;30;20051;-71
2021/10/04 10:18:49;;;;;;;5.13;1.00;;;17.80;69.90;;;;;;4789193;30;20408;-75
2021/10/04 10:21:24;;;;;;;5.00;1.25;;;17.80;69.60;;;;;;4784693;30;20219;-72
2021/10/04 10:23:58;;;;;;;4.85;1.05;;;17.90;69.20;;;;;;4786847;30;20428;-73
2021/10/04 10:26:29;;;;;;;4.88;1.00;;;17.90;68.90;;;;;;4791079;29;20051;-73
2021/10/04 10:29:16;;;;;;;5.40;1.17;;;17.90;67.80;;;;;;4792403;30;20052;-73
2021/10/04 10:31:51;;;;;;;5.47;1.27;;;17.80;68.50;;;;;;4791739;30;20463;-72
2021/10/04 10:34:39;;;;;;;4.28;0.80;;;17.80;69.00;;;;;;4792666;30;20051;-69
2021/10/04 10:37:10;;;;;;;4.20;0.95;;;17.80;69.40;;;;;;4784397;30;20060;-69
2021/10/04 10:40:02;;;;;;;4.40;1.35;;;17.70;69.70;;;;;;4800131;29;20058;-69
2021/10/04 10:42:44;;;;;;;5.15;1.00;;;17.70;70.10;;;;;;4807478;29;20454;-70
2021/10/04 10:45:15;;;;;;;3.85;1.02;;;17.60;70.20;;;;;;4810431;29;20046;-69
2021/10/04 10:47:41;;;;;;;3.58;0.80;;;17.60;69.90;;;;;;4809938;29;20051;-69
2021/10/04 10:50:30;;;;;;;5.65;1.20;;;17.50;70.40;;;;;;4810311;29;20451;-69
2021/10/04 10:52:58;;;;;;;6.63;1.10;;;17.50;69.60;;;;;;4804770;29;20063;-70
2021/10/04 10:55:24;;;;;;;6.82;1.40;;;17.50;70.60;;;;;;4810162;29;20086;-70
2021/10/04 10:57:56;;;;;;;6.78;1.30;;;17.60;71.70;;;;;;4812705;29;20124;-70
2021/10/04 11:00:24;;;;;;;5.13;1.05;;;17.60;70.80;;;;;;4828169;29;20472;-70
2021/10/04 11:02:52;;;;;;;7.43;1.40;;;17.60;70.40;;;;;;4828323;29;20141;-69
2021/10/04 11:05:39;;;;;;;7.93;0.95;;;17.70;69.90;;;;;;4828865;29;20062;-69
2021/10/04 11:08:07;;;;;;;5.13;0.60;;;17.80;68.80;;;;;;4823694;29;20069;-70
2021/10/04 11:10:48;;;;;;;5.70;1.10;;;17.70;68.90;;;;;;4828904;29;20058;-70
2021/10/04 11:13:32;;;;;;;8.07;1.08;;;17.70;68.30;;;;;;4828410;29;20062;-69
2021/10/04 11:16:00;;;;;;;9.50;1.67;;;17.70;67.50;;;;;;4828197;29;20065;-69
2021/10/04 11:18:40;;;;;;;4.65;0.98;;;17.70;67.70;;;;;;4810334;29;20086;-70
2021/10/04 11:21:08;;;;;;;4.35;1.20;;;17.60;68.10;;;;;;4809868;29;20058;-69
2021/10/04 11:23:39;;;;;;;4.30;0.88;;;17.60;68.80;;;;;;4809645;29;20051;-71
2021/10/04 11:26:08;;;;;;;3.08;1.15;;;17.60;69.00;;;;;;4810154;29;20073;-69
2021/10/04 11:28:33;;;;;;;7.32;1.20;;;17.60;69.20;;;;;;4809760;29;20046;-69
2021/10/04 11:31:09;;;;;;;4.38;1.00;;;17.60;68.80;;;;;;4804595;29;20063;-69
2021/10/04 11:33:39;;;;;;;5.15;0.90;;;17.70;68.40;;;;;;4798337;29;20531;-69
2021/10/04 11:36:09;;;;;;;4.22;0.90;;;17.80;68.10;;;;;;4807014;29;20129;-69
2021/10/04 11:38:37;;;;;;;6.70;1.20;;;17.70;68.00;;;;;;4808460;29;20439;-69
2021/10/04 11:41:04;;;;;;;12.20;1.35;;;17.70;67.90;;;;;;4808014;29;20366;-70
2021/10/04 11:43:35;;;;;;;6.57;1.17;;;17.70;67.90;;;;;;4791494;29;20509;-70
2021/10/04 11:46:16;;;;;;;4.63;0.80;;;17.80;67.50;;;;;;4807440;29;20058;-70
2021/10/04 11:48:43;;;;;;;3.15;0.80;;;17.80;67.70;;;;;;4803603;29;20103;-70
2021/10/04 11:51:11;;;;;;;5.80;0.85;;;17.70;67.90;;;;;;4791206;30;20058;-70
2021/10/04 11:53:42;;;;;;;4.35;0.95;;;17.70;68.40;;;;;;4799420;29;20459;-70
2021/10/04 11:56:09;;;;;;;5.15;0.73;;;17.80;67.30;;;;;;4803718;29;20054;-70
2021/10/04 11:58:45;;;;;;;4.95;1.15;;;17.80;67.10;;;;;;4809210;29;20046;-70
2021/10/04 12:01:11;;;;;;;6.85;0.70;;;17.80;67.00;;;;;;4790467;29;20132;-70
2021/10/04 12:03:39;;;;;;;7.70;1.00;;;17.80;67.00;;;;;;4800340;29;20368;-70
2021/10/04 12:06:08;;;;;;;6.20;0.88;;;17.70;67.30;;;;;;4791182;30;20059;-71
2021/10/04 12:08:39;;;;;;;5.68;0.75;;;17.60;67.80;;;;;;4790897;30;20055;-70
2021/10/04 12:11:07;;;;;;;4.53;0.88;;;17.60;67.90;;;;;;4808680;29;20061;-71
2021/10/04 12:13:35;;;;;;;5.95;0.88;;;17.60;68.00;;;;;;4803092;29;20494;-71
2021/10/04 12:16:14;;;;;;;7.55;1.13;;;17.50;68.00;;;;;;4801542;29;20062;-71
2021/10/04 12:19:02;;;;;;;5.82;0.80;;;17.50;67.20;;;;;;4802084;29;20138;-71
2021/10/04 12:21:52;;;;;;;8.45;1.20;;;17.50;67.50;;;;;;4805113;29;20066;-71
2021/10/04 12:24:27;;;;;;;3.03;0.68;;;17.50;66.80;;;;;;4808862;29;20046;-71
2021/10/04 12:27:05;;;;;;;5.20;0.85;;;17.50;67.70;;;;;;4809081;29;20486;-72
2021/10/04 12:29:41;;;;;;;4.55;1.02;;;17.40;67.60;;;;;;4804652;29;20078;-71
2021/10/04 12:32:31;;;;;;;5.60;0.88;;;17.50;68.00;;;;;;4808640;29;20104;-72
2021/10/04 12:35:07;;;;;;;9.55;1.30;;;17.50;67.70;;;;;;4809018;29;20130;-72
2021/10/04 12:37:39;;;;;;;8.55;1.25;;;17.40;67.90;;;;;;4807117;29;20047;-72
2021/10/04 12:40:27;;;;;;;3.85;0.80;;;17.40;68.00;;;;;;4789461;30;20078;-76
2021/10/04 12:43:04;;;;;;;3.63;0.95;;;17.50;67.90;;;;;;4790548;30;20437;-70
2021/10/04 12:45:31;;;;;;;4.00;0.85;;;17.60;67.20;;;;;;4791266;30;20086;-70
2021/10/04 12:48:00;;;;;;;6.75;1.13;;;17.60;67.00;;;;;;4788090;29;20165;-69
2021/10/04 12:50:32;;;;;;;7.57;1.63;;;17.60;67.50;;;;;;4784417;29;20055;-74
2021/10/04 12:53:11;;;;;;;5.35;0.80;;;17.60;68.50;;;;;;4772352;30;20066;-71
2021/10/04 12:56:01;;;;;;;6.13;0.77;;;17.70;68.80;;;;;;4763380;30;20047;-78
2021/10/04 12:58:32;;;;;;;5.68;0.82;;;17.70;69.30;;;;;;4802826;29;20123;-70
2021/10/04 13:01:10;;;;;;;6.32;0.85;;;17.80;70.10;;;;;;4792253;29;20062;-71
2021/10/04 13:03:55;;;;;;;8.90;1.27;;;17.80;69.70;;;;;;4799681;29;20058;-74
2021/10/04 13:06:32;;;;;;;8.52;1.33;;;17.90;70.20;;;;;;4803877;29;20130;-69
2021/10/04 13:09:00;;;;;;;10.15;1.55;;;17.90;70.00;;;;;;4807869;29;20057;-71
2021/10/04 13:11:26;;;;;;;8.40;1.15;;;18.00;70.40;;;;;;4808561;29;20050;-72
2021/10/04 13:13:53;;;;;;;6.10;1.33;;;17.90;70.20;;;;;;4806844;29;20089;-71
2021/10/04 13:16:19;;;;;;;6.90;1.10;;;18.00;69.90;;;;;;4808284;29;20059;-70
2021/10/04 13:18:45;;;;;;;9.23;1.42;;;18.00;70.20;;;;;;4777378;29;20047;-70
2021/10/04 13:21:11;;;;;;;9.73;1.45;;;18.00;70.70;;;;;;4808337;29;20058;-70
2021/10/04 13:23:38;;;;;;;9.50;1.17;;;18.10;70.10;;;;;;4805966;29;20046;-69
2021/10/04 13:26:08;;;;;;;11.48;1.52;;;18.10;70.20;;;;;;4808035;29;20046;-70
2021/10/04 13:28:36;;;;;;;7.53;0.90;;;18.10;70.80;;;;;;4807999;29;20055;-69
2021/10/04 13:31:08;;;;;;;9.48;1.10;;;18.10;70.80;;;;;;4788146;29;20055;-70
2021/10/04 13:33:35;;;;;;;5.32;1.27;;;18.10;70.90;;;;;;4788074;29;20142;-70
2021/10/04 13:36:01;;;;;;;7.45;1.25;;;18.10;71.00;;;;;;4789616;30;20065;-71
2021/10/04 13:38:30;;;;;;;4.88;1.02;;;18.10;71.10;;;;;;4784854;30;20552;-70
2021/10/04 13:40:58;;;;;;;7.60;1.13;;;18.10;71.30;;;;;;4789033;30;20055;-70
2021/10/04 13:43:24;;;;;;;10.13;1.45;;;18.10;71.60;;;;;;4790140;29;20051;-71
2021/10/04 13:45:50;;;;;;;6.60;0.85;;;18.10;71.70;;;;;;4799432;29;20227;-70
2021/10/04 13:48:16;;;;;;;6.50;1.13;;;18.10;71.70;;;;;;4798741;29;20133;-71
2021/10/04 13:50:42;;;;;;;5.28;1.40;;;18.10;71.80;;;;;;4787600;30;20134;-70
2021/10/04 13:53:08;;;;;;;10.15;1.30;;;18.10;72.10;;;;;;4804219;29;20507;-72
2021/10/04 13:55:34;;;;;;;12.85;1.50;;;18.10;71.90;;;;;;4807588;29;20055;-71
2021/10/04 13:58:00;;;;;;;8.25;1.60;;;18.20;70.80;;;;;;4791798;29;20062;-73
2021/10/04 14:00:26;;;;;;;10.55;1.58;;;18.20;70.50;;;;;;4799976;29;20455;-69
2021/10/04 14:02:52;;;;;;;13.07;1.42;;;18.20;70.30;;;;;;4801897;29;20126;-71
2021/10/04 14:05:17;;;;;;;10.32;2.28;;;18.20;70.40;;;;;;4776200;30;20148;-68
2021/10/04 14:07:43;;;;;;;14.45;1.63;;;18.30;69.50;;;;;;4789909;30;20090;-69
2021/10/04 14:10:10;;;;;;;15.35;1.83;;;18.40;70.30;;;;;;4793034;30;20055;-70
2021/10/04 14:12:37;;;;;;;16.10;2.22;;;18.40;70.70;;;;;;4793269;30;20110;-70
2021/10/04 14:15:06;;;;;;;13.68;2.28;;;18.50;70.80;;;;;;4774998;30;20064;-77
2021/10/04 14:17:31;;;;;;;14.45;2.78;;;18.50;71.20;;;;;;4790662;30;20066;-74
2021/10/04 14:19:57;;;;;;;10.00;2.00;;;18.50;71.50;;;;;;4775122;30;20046;-75
2021/10/04 14:22:23;;;;;;;9.68;2.67;;;18.60;70.40;;;;;;4792927;30;20458;-75
2021/10/04 14:24:48;;;;;;;9.40;2.10;;;18.60;68.90;;;;;;4802151;29;20134;-77
2021/10/04 14:27:14;;;;;;;10.63;2.38;;;18.60;66.70;;;;;;4811025;29;20051;-74
2021/10/04 14:29:40;;;;;;;11.73;4.47;;;18.50;66.20;;;;;;4811007;29;20061;-75
2021/10/04 14:32:07;;;;;;;13.30;4.65;;;18.50;67.10;;;;;;4810765;29;20053;-73
2021/10/04 14:34:32;;;;;;;6.78;2.53;;;18.50;68.90;;;;;;4803605;29;20123;-75
2021/10/04 14:36:58;;;;;;;8.32;2.35;;;18.50;69.10;;;;;;4792612;30;20478;-72
2021/10/04 14:39:24;;;;;;;10.68;2.22;;;18.50;69.60;;;;;;4788019;29;20059;-72
2021/10/04 14:41:51;;;;;;;9.52;2.25;;;18.50;69.30;;;;;;4810663;29;20387;-74
2021/10/04 14:44:20;;;;;;;10.52;1.75;;;18.50;68.80;;;;;;4810380;29;20159;-74
2021/10/04 14:46:46;;;;;;;6.43;1.48;;;18.50;68.00;;;;;;4810850;29;20069;-70
2021/10/04 14:49:12;;;;;;;9.35;1.45;;;18.30;67.60;;;;;;4794628;29;20059;-70
2021/10/04 14:51:38;;;;;;;5.85;1.20;;;18.20;68.00;;;;;;4810254;29;20084;-70
2021/10/04 14:54:04;;;;;;;11.25;1.73;;;18.10;68.50;;;;;;4810548;29;20047;-69
2021/10/04 14:56:31;;;;;;;9.48;2.13;;;18.00;68.90;;;;;;4810364;29;20043;-70
2021/10/04 14:58:56;;;;;;;8.90;1.55;;;17.90;69.50;;;;;;4810654;29;20098;-69
2021/10/04 15:01:23;;;;;;;6.97;1.30;;;17.90;70.00;;;;;;4810594;29;20105;-70
2021/10/04 15:03:52;;;;;;;7.68;1.63;;;17.80;70.20;;;;;;4809836;29;20055;-69
2021/10/04 15:06:18;;;;;;;6.22;1.15;;;17.80;70.40;;;;;;4810119;29;20054;-69
2021/10/04 15:08:44;;;;;;;9.77;1.23;;;17.80;70.80;;;;;;4810218;29;20063;-69
2021/10/04 15:11:09;;;;;;;6.00;0.90;;;17.80;71.50;;;;;;4810301;29;20138;-69
2021/10/04 15:13:35;;;;;;;5.03;1.10;;;17.80;71.20;;;;;;4810558;29;20550;-70
2021/10/04 15:16:01;;;;;;;6.05;1.00;;;17.80;71.30;;;;;;4809894;29;20055;-70
2021/10/04 15:18:27;;;;;;;7.90;1.42;;;17.80;71.30;;;;;;4810068;29;20099;-70
2021/10/04 15:20:52;;;;;;;13.73;1.92;;;17.80;71.50;;;;;;4793453;29;20138;-69
2021/10/04 15:23:18;;;;;;;6.35;1.35;;;17.80;71.90;;;;;;4812345;29;20050;-71
2021/10/04 15:25:44;;;;;;;8.50;1.77;;;17.90;71.80;;;;;;4796416;29;20115;-69
2021/10/04 15:28:10;;;;;;;11.27;1.80;;;17.80;71.70;;;;;;4810013;29;20050;-70
2021/10/04 15:30:37;;;;;;;9.10;1.83;;;17.90;72.00;;;;;;4809764;29;20062;-70
2021/10/04 15:33:03;;;;;;;9.93;1.60;;;17.90;72.00;;;;;;4809457;29;20127;-70
2021/10/04 15:35:28;;;;;;;12.90;1.27;;;17.90;72.10;;;;;;4808995;29;20121;-70
2021/10/04 15:37:55;;;;;;;8.10;1.27;;;17.90;72.10;;;;;;4808934;29;20047;-70
2021/10/04 15:40:21;;;;;;;6.47;1.23;;;17.90;72.10;;;;;;4809665;29;20501;-70
2021/10/04 15:42:46;;;;;;;8.10;1.08;;;17.90;72.20;;;;;;4809506;29;20144;-70
2021/10/04 15:45:12;;;;;;;9.02;1.70;;;17.90;72.20;;;;;;4798026;29;20061;-70
2021/10/04 15:47:39;;;;;;;7.32;1.35;;;17.90;72.40;;;;;;4791307;30;20458;-70
2021/10/04 15:50:06;;;;;;;8.40;1.60;;;17.90;71.70;;;;;;4791370;30;20051;-70
2021/10/04 15:52:32;;;;;;;5.30;1.17;;;17.80;70.80;;;;;;4791432;30;20059;-70
2021/10/04 15:54:58;;;;;;;5.35;1.20;;;17.80;70.40;;;;;;4791214;30;20051;-70
2021/10/04 15:57:24;;;;;;;6.55;1.25;;;17.70;69.40;;;;;;4791355;30;20580;-70
2021/10/04 15:59:49;;;;;;;7.18;1.15;;;17.70;69.40;;;;;;4791581;29;20092;-70
2021/10/04 16:02:15;;;;;;;5.38;0.88;;;17.70;68.10;;;;;;4790930;30;20452;-71
2021/10/04 16:04:42;;;;;;;7.35;1.33;;;17.60;68.60;;;;;;4791346;30;20055;-71
2021/10/04 16:07:08;;;;;;;7.68;1.33;;;17.70;70.00;;;;;;4775380;30;20059;-70
2021/10/04 16:09:34;;;;;;;5.68;1.20;;;17.70;70.70;;;;;;4790880;30;20058;-70
2021/10/04 16:12:02;;;;;;;5.28;0.90;;;17.70;71.00;;;;;;4790597;30;20076;-70
2021/10/04 16:14:29;;;;;;;6.80;1.35;;;17.70;71.20;;;;;;4790554;29;20043;-71
2021/10/04 16:16:55;;;;;;;5.75;0.85;;;17.70;71.30;;;;;;4790657;30;20039;-70
2021/10/04 16:19:22;;;;;;;6.82;1.00;;;17.70;71.50;;;;;;4790627;30;20058;-72
2021/10/04 16:21:48;;;;;;;5.47;1.10;;;17.70;71.50;;;;;;4790235;30;20051;-68
2021/10/04 16:24:16;;;;;;;6.07;1.10;;;17.70;71.60;;;;;;4790229;29;20349;-70
2021/10/04 16:26:42;;;;;;;5.72;1.05;;;17.70;71.60;;;;;;4790866;30;20463;-70
2021/10/04 16:29:11;;;;;;;6.43;0.98;;;17.80;71.80;;;;;;4790120;30;20074;-70
2021/10/04 16:31:37;;;;;;;4.60;1.02;;;17.70;71.70;;;;;;4774878;30;20055;-70
2021/10/04 16:34:03;;;;;;;5.47;0.90;;;17.80;71.90;;;;;;4789703;30;20551;-70
2021/10/04 16:36:30;;;;;;;4.95;1.15;;;17.80;71.90;;;;;;4790408;30;20196;-70
2021/10/04 16:38:57;;;;;;;5.63;1.10;;;17.70;72.00;;;;;;4798376;29;20058;-69
2021/10/04 16:41:23;;;;;;;3.38;0.68;;;17.80;72.10;;;;;;4792608;29;20135;-70
2021/10/04 16:43:49;;;;;;;5.70;1.02;;;17.80;72.10;;;;;;4790040;29;20420;-70
2021/10/04 16:46:14;;;;;;;4.65;1.10;;;17.80;72.10;;;;;;4790385;30;20062;-70
2021/10/04 16:48:41;;;;;;;5.03;1.00;;;17.80;72.20;;;;;;4790286;30;20140;-70
2021/10/04 16:51:07;;;;;;;6.75;1.30;;;17.80;72.20;;;;;;4774547;30;20067;-70
2021/10/04 16:53:33;;;;;;;4.72;1.10;;;17.80;72.30;;;;;;4805684;29;20062;-69
2021/10/04 16:55:58;;;;;;;4.13;0.70;;;17.80;72.30;;;;;;4808068;29;20047;-70
2021/10/04 16:58:25;;;;;;;5.93;0.70;;;17.80;72.40;;;;;;4808374;29;20130;-70
2021/10/04 17:00:52;;;;;;;6.85;1.42;;;17.80;72.40;;;;;;4808072;29;20086;-70
2021/10/04 17:03:19;;;;;;;4.13;0.77;;;17.80;72.40;;;;;;4794183;29;20463;-71
2021/10/04 17:05:45;;;;;;;2.75;0.80;;;17.80;72.40;;;;;;4790309;30;20356;-70
2021/10/04 17:08:11;;;;;;;6.05;0.80;;;17.80;72.40;;;;;;4790202;30;20058;-69
2021/10/04 17:10:38;;;;;;;3.53;0.75;;;17.80;72.50;;;;;;4790212;30;20067;-70
2021/10/04 17:13:06;;;;;;;4.78;1.02;;;17.80;72.60;;;;;;4800458;29;20063;-71
2021/10/04 17:15:33;;;;;;;3.50;0.77;;;17.80;72.70;;;;;;4807981;29;20043;-70
2021/10/04 17:18:00;;;;;;;3.67;0.82;;;17.80;72.70;;;;;;4808111;29;20046;-70
2021/10/04 17:20:26;;;;;;;3.22;0.85;;;17.80;72.80;;;;;;4807948;29;20062;-70
2021/10/04 17:22:51;;;;;;;2.45;0.90;;;17.80;72.80;;;;;;4798822;29;20051;-70
2021/10/04 17:25:18;;;;;;;2.45;0.70;;;17.80;72.90;;;;;;4790144;30;20051;-70
2021/10/04 17:27:43;;;;;;;4.28;1.05;;;17.80;72.90;;;;;;4789279;30;20142;-73
2021/10/04 17:30:10;;;;;;;9.43;1.17;;;17.80;72.90;;;;;;4789889;30;20472;-70
2021/10/04 17:32:36;;;;;;;4.63;1.10;;;17.80;73.20;;;;;;4796359;29;20046;-70
2021/10/04 17:35:04;;;;;;;8.75;2.30;;;17.80;73.10;;;;;;4808012;29;20076;-71
2021/10/04 17:37:30;;;;;;;4.90;1.40;;;17.80;73.30;;;;;;4802656;29;20054;-72
2021/10/04 17:39:57;;;;;;;4.90;1.83;;;17.70;73.30;;;;;;4790641;30;20363;-71
2021/10/04 17:42:24;;;;;;;4.28;1.33;;;17.70;73.60;;;;;;4789276;30;20055;-74
2021/10/04 17:44:50;;;;;;;8.50;1.60;;;17.70;73.90;;;;;;4789694;30;20432;-74
2021/10/04 17:47:16;;;;;;;3.05;1.33;;;17.70;74.30;;;;;;4774142;30;20138;-70
2021/10/04 17:49:42;;;;;;;5.70;1.55;;;17.70;74.30;;;;;;4789711;30;20134;-71
2021/10/04 17:52:09;;;;;;;6.53;1.80;;;17.70;74.60;;;;;;4789667;30;20066;-71
2021/10/04 17:54:35;;;;;;;7.90;1.90;;;17.70;75.00;;;;;;4789620;30;20062;-70
2021/10/04 17:57:01;;;;;;;5.57;2.00;;;17.70;75.40;;;;;;4773719;30;20055;-70
2021/10/04 17:59:27;;;;;;;5.32;1.65;;;17.70;75.40;;;;;;4789921;30;20059;-70
2021/10/04 18:01:52;;;;;;;6.63;1.90;;;17.70;75.50;;;;;;4789733;30;20039;-71
2021/10/04 18:04:18;;;;;;;5.40;1.50;;;17.70;75.50;;;;;;4789442;30;20051;-71
2021/10/04 18:06:44;;;;;;;7.78;1.88;;;17.70;75.60;;;;;;4773772;30;20059;-71
2021/10/04 18:09:09;;;;;;;8.15;2.05;;;17.70;75.80;;;;;;4789224;30;20063;-71
2021/10/04 18:11:35;;;;;;;5.47;1.60;;;17.70;75.90;;;;;;4789616;30;20043;-71
2021/10/04 18:14:01;;;;;;;4.38;1.58;;;17.70;75.80;;;;;;4789394;30;20131;-71
2021/10/04 18:16:27;;;;;;;6.20;1.77;;;17.70;75.90;;;;;;4772686;30;20058;-71
2021/10/04 18:18:57;;;;;;;11.10;2.22;;;17.70;76.00;;;;;;4788884;29;20480;-71
2021/10/04 18:21:24;;;;;;;9.02;1.95;;;17.80;76.40;;;;;;4788950;30;20059;-71
2021/10/04 18:23:51;;;;;;;10.27;2.58;;;17.90;76.60;;;;;;4789957;29;20345;-72
2021/10/04 18:26:17;;;;;;;14.52;2.92;;;17.90;76.50;;;;;;4789313;30;20070;-72
2021/10/04 18:28:43;;;;;;;14.73;2.60;;;18.00;76.50;;;;;;4789341;30;20329;-72